createdAt,value
2019-02-02T00:00:32.131Z,3.30
2019-02-02T00:03:00.603Z,3.30
2019-02-02T00:05:29.145Z,3.30
2019-02-02T00:07:57.621Z,3.30
2019-02-02T00:10:26.109Z,3.30
2019-02-02T00:12:54.577Z,3.20
2019-02-02T00:15:24.193Z,3.20
2019-02-02T00:17:52.844Z,3.20
2019-02-02T00:20:21.319Z,3.20
2019-02-02T00:22:51.485Z,3.30
2019-02-02T00:25:20.417Z,3.30
2019-02-02T00:27:49.024Z,3.30
2019-02-02T00:30:18.721Z,3.30
2019-02-02T00:32:47.364Z,3.30
2019-02-02T00:35:15.901Z,3.30
2019-02-02T00:37:44.420Z,3.30
2019-02-02T00:40:16.016Z,3.30
2019-02-02T00:42:44.493Z,3.30
2019-02-02T00:45:15.849Z,3.30
2019-02-02T00:47:44.415Z,3.30
2019-02-02T00:50:15.020Z,3.30
2019-02-02T00:52:43.622Z,3.30
2019-02-02T00:55:19.758Z,3.30
2019-02-02T00:57:53.421Z,3.30
2019-02-02T01:00:20.777Z,3.30
2019-02-02T01:02:49.348Z,3.30
2019-02-02T01:05:37.159Z,3.30
2019-02-02T01:08:06.088Z,3.30
2019-02-02T01:10:37.629Z,3.30
2019-02-02T01:13:06.604Z,3.40
2019-02-02T01:15:35.273Z,3.30
2019-02-02T01:18:03.997Z,3.30
2019-02-02T01:20:32.698Z,3.30
2019-02-02T01:23:01.824Z,3.30
2019-02-02T01:25:30.423Z,3.30
2019-02-02T01:28:05.510Z,3.30
2019-02-02T01:30:29.122Z,3.30
2019-02-02T01:32:57.652Z,3.30
2019-02-02T01:35:26.275Z,3.30
2019-02-02T01:37:54.836Z,3.30
2019-02-02T01:40:25.233Z,3.30
2019-02-02T01:43:13.064Z,3.30
2019-02-02T01:45:41.784Z,3.30
2019-02-02T01:48:10.271Z,3.20
2019-02-02T01:50:38.824Z,3.20
2019-02-02T01:53:07.399Z,3.20
2019-02-02T01:55:55.311Z,3.20
2019-02-02T01:58:23.813Z,3.20
2019-02-02T02:00:52.363Z,3.10
2019-02-02T02:03:20.844Z,3.10
2019-02-02T02:05:49.390Z,3.10
2019-02-02T02:08:17.920Z,3.10
2019-02-02T02:10:49.470Z,3.10
2019-02-02T02:13:19.643Z,3.10
2019-02-02T02:16:07.476Z,3.00
2019-02-02T02:18:35.997Z,3.10
2019-02-02T02:21:04.593Z,3.10
2019-02-02T02:23:33.156Z,3.10
2019-02-02T02:26:01.625Z,3.10
2019-02-02T02:28:30.080Z,3.10
2019-02-02T02:30:58.584Z,3.10
2019-02-02T02:33:27.150Z,3.10
2019-02-02T02:35:55.678Z,3.10
2019-02-02T02:38:24.164Z,3.10
2019-02-02T02:40:52.666Z,3.10
2019-02-02T02:43:21.468Z,3.10
2019-02-02T02:45:49.955Z,3.10
2019-02-02T02:48:18.407Z,3.10
2019-02-02T02:50:46.880Z,3.00
2019-02-02T02:53:15.376Z,3.00
2019-02-02T02:55:43.855Z,3.10
2019-02-02T02:58:12.313Z,3.00
2019-02-02T03:00:40.808Z,3.00
2019-02-02T03:03:09.345Z,3.00
2019-02-02T03:05:37.868Z,3.00
2019-02-02T03:08:06.502Z,3.00
2019-02-02T03:10:35.025Z,3.00
2019-02-02T03:13:04.168Z,2.90
2019-02-02T03:15:32.673Z,2.90
2019-02-02T03:18:01.121Z,3.00
2019-02-02T03:20:29.693Z,3.00
2019-02-02T03:22:58.180Z,3.00
2019-02-02T03:25:27.085Z,3.00
2019-02-02T03:27:55.632Z,3.00
2019-02-02T03:30:24.246Z,3.00
2019-02-02T03:32:52.710Z,3.00
2019-02-02T03:35:25.342Z,3.00
2019-02-02T03:37:53.901Z,3.00
2019-02-02T03:40:24.015Z,3.00
2019-02-02T03:42:52.808Z,3.00
2019-02-02T03:45:25.459Z,3.00
2019-02-02T03:47:54.908Z,3.00
2019-02-02T03:50:42.806Z,3.00
2019-02-02T03:53:11.321Z,3.00
2019-02-02T03:55:39.803Z,3.00
2019-02-02T03:58:08.373Z,3.00
2019-02-02T04:00:37.002Z,3.00
2019-02-02T04:03:05.552Z,2.90
2019-02-02T04:05:34.051Z,3.00
2019-02-02T04:08:02.588Z,3.00
2019-02-02T04:10:31.069Z,3.00
2019-02-02T04:12:59.559Z,3.00
2019-02-02T04:15:28.028Z,3.00
2019-02-02T04:17:56.511Z,3.00
2019-02-02T04:20:25.173Z,3.00
2019-02-02T04:22:53.728Z,3.00
2019-02-02T04:25:22.968Z,3.00
2019-02-02T04:27:51.776Z,3.00
2019-02-02T04:30:25.756Z,3.00
2019-02-02T04:32:54.835Z,3.00
2019-02-02T04:35:23.969Z,3.00
2019-02-02T04:37:52.568Z,2.90
2019-02-02T04:40:21.974Z,2.90
2019-02-02T04:42:50.465Z,3.00
2019-02-02T04:45:18.994Z,3.00
2019-02-02T04:47:47.464Z,3.00
2019-02-02T04:50:18.130Z,3.00
2019-02-02T04:52:46.750Z,3.00
2019-02-02T04:55:17.247Z,3.00
2019-02-02T04:57:45.755Z,3.00
2019-02-02T05:00:20.081Z,3.00
2019-02-02T05:02:48.628Z,3.00
2019-02-02T05:05:18.505Z,3.00
2019-02-02T05:07:47.105Z,3.00
2019-02-02T05:10:23.124Z,2.90
2019-02-02T05:12:52.339Z,2.90
2019-02-02T05:15:20.934Z,2.90
2019-02-02T05:17:49.513Z,2.90
2019-02-02T05:20:19.419Z,2.90
2019-02-02T05:22:48.198Z,2.90
2019-02-02T05:25:16.828Z,2.90
2019-02-02T05:27:45.437Z,2.90
2019-02-02T05:30:31.214Z,2.90
2019-02-02T05:32:59.668Z,2.90
2019-02-02T05:35:28.264Z,2.90
2019-02-02T05:37:56.756Z,2.90
2019-02-02T05:40:25.388Z,2.90
2019-02-02T05:42:53.928Z,2.90
2019-02-02T05:45:23.617Z,2.90
2019-02-02T05:47:52.102Z,2.90
2019-02-02T05:50:23.075Z,2.80
2019-02-02T05:52:52.660Z,2.90
2019-02-02T05:55:22.881Z,2.90
2019-02-02T05:57:51.422Z,2.90
2019-02-02T06:00:24.519Z,2.90
2019-02-02T06:02:53.105Z,2.80
2019-02-02T06:05:21.733Z,2.80
2019-02-02T06:07:50.188Z,2.80
2019-02-02T06:10:20.603Z,2.80
2019-02-02T06:12:49.056Z,2.90
2019-02-02T06:15:17.704Z,2.80
2019-02-02T06:17:46.267Z,2.90
2019-02-02T06:20:17.561Z,2.80
2019-02-02T06:22:46.151Z,2.90
2019-02-02T06:25:15.898Z,2.90
2019-02-02T06:27:44.565Z,2.80
2019-02-02T06:30:18.732Z,2.80
2019-02-02T06:32:47.379Z,2.90
2019-02-02T06:35:17.584Z,2.90
2019-02-02T06:37:46.584Z,2.90
2019-02-02T06:40:16.603Z,2.90
2019-02-02T06:42:45.146Z,2.80
2019-02-02T06:45:31.673Z,2.80
2019-02-02T06:48:00.283Z,2.90
2019-02-02T06:50:28.880Z,2.90
2019-02-02T06:52:58.393Z,2.90
2019-02-02T06:55:46.198Z,2.80
2019-02-02T06:58:14.732Z,2.90
2019-02-02T07:00:43.282Z,2.90
2019-02-02T07:03:12.488Z,2.80
2019-02-02T07:05:41.598Z,2.90
2019-02-02T07:08:10.049Z,2.90
2019-02-02T07:10:38.516Z,2.90
2019-02-02T07:13:07.020Z,2.90
2019-02-02T07:15:35.505Z,2.90
2019-02-02T07:18:04.276Z,2.90
2019-02-02T07:20:32.788Z,2.80
2019-02-02T07:23:20.621Z,2.80
2019-02-02T07:25:49.218Z,2.80
2019-02-02T07:28:17.699Z,2.80
2019-02-02T07:30:46.161Z,2.80
2019-02-02T07:33:14.710Z,2.90
2019-02-02T07:35:43.244Z,2.90
2019-02-02T07:38:11.825Z,2.90
2019-02-02T07:40:40.324Z,2.90
2019-02-02T07:43:08.797Z,2.90
2019-02-02T07:45:37.327Z,2.90
2019-02-02T07:48:06.114Z,2.90
2019-02-02T07:50:34.646Z,2.90
2019-02-02T07:53:03.105Z,2.90
2019-02-02T07:55:31.601Z,2.90
2019-02-02T07:58:00.112Z,3.00
2019-02-02T08:00:40.965Z,2.90
2019-02-02T08:03:04.883Z,2.90
2019-02-02T08:05:33.494Z,2.90
2019-02-02T08:08:01.982Z,2.90
2019-02-02T08:10:30.548Z,2.90
2019-02-02T08:12:59.029Z,2.90
2019-02-02T08:15:30.557Z,2.90
2019-02-02T08:17:59.115Z,2.90
2019-02-02T08:20:27.568Z,3.00
2019-02-02T08:22:56.719Z,3.00
2019-02-02T08:25:25.700Z,2.90
2019-02-02T08:27:54.368Z,2.90
2019-02-02T08:30:25.431Z,2.90
2019-02-02T08:32:54.062Z,2.90
2019-02-02T08:35:22.686Z,2.90
2019-02-02T08:37:51.167Z,2.90
2019-02-02T08:40:20.467Z,2.80
2019-02-02T08:42:49.442Z,2.90
2019-02-02T08:45:18.314Z,2.90
2019-02-02T08:47:47.316Z,2.90
2019-02-02T08:50:18.537Z,2.90
2019-02-02T08:52:47.112Z,2.90
2019-02-02T08:55:15.713Z,2.90
2019-02-02T08:57:44.305Z,2.90
2019-02-02T09:00:18.342Z,2.90
2019-02-02T09:02:46.949Z,2.80
2019-02-02T09:05:20.791Z,2.80
2019-02-02T09:07:50.020Z,2.90
2019-02-02T09:10:20.971Z,2.90
2019-02-02T09:12:49.559Z,2.90
2019-02-02T09:15:19.351Z,2.80
2019-02-02T09:17:48.257Z,2.90
2019-02-02T09:20:17.857Z,2.90
2019-02-02T09:22:46.904Z,3.00
2019-02-02T09:25:17.184Z,3.00
2019-02-02T09:27:46.093Z,3.00
2019-02-02T09:30:31.828Z,3.00
2019-02-02T09:33:00.445Z,3.00
2019-02-02T09:35:29.208Z,3.10
2019-02-02T09:37:57.785Z,3.10
2019-02-02T09:40:26.316Z,3.10
2019-02-02T09:42:54.851Z,3.10
2019-02-02T09:45:25.016Z,3.20
2019-02-02T09:47:53.696Z,3.20
2019-02-02T09:50:26.645Z,3.30
2019-02-02T09:52:55.294Z,3.30
2019-02-02T09:55:25.294Z,3.30
2019-02-02T09:57:56.762Z,3.20
2019-02-02T10:00:30.144Z,3.20
2019-02-02T10:02:58.745Z,3.30
2019-02-02T10:05:27.740Z,3.40
2019-02-02T10:07:56.293Z,3.30
2019-02-02T10:10:27.613Z,3.30
2019-02-02T10:13:10.551Z,3.30
2019-02-02T10:15:39.132Z,3.30
2019-02-02T10:18:07.756Z,3.20
2019-02-02T10:20:36.290Z,3.20
2019-02-02T10:23:05.099Z,3.10
2019-02-02T10:25:33.606Z,3.10
2019-02-02T10:28:02.087Z,3.10
2019-02-02T10:30:39.473Z,3.20
2019-02-02T10:33:08.200Z,3.20
2019-02-02T10:35:36.660Z,3.10
2019-02-02T10:38:06.226Z,3.10
2019-02-02T10:40:34.801Z,3.10
2019-02-02T10:43:03.628Z,3.10
2019-02-02T10:45:32.292Z,3.20
2019-02-02T10:48:00.870Z,3.20
2019-02-02T10:50:29.433Z,3.20
2019-02-02T10:52:57.906Z,3.20
2019-02-02T10:55:26.554Z,3.10
2019-02-02T10:57:55.143Z,3.10
2019-02-02T11:00:28.989Z,3.20
2019-02-02T11:02:58.360Z,3.20
2019-02-02T11:05:26.909Z,3.20
2019-02-02T11:07:55.544Z,3.10
2019-02-02T11:10:31.837Z,3.20
2019-02-02T11:13:00.376Z,3.20
2019-02-02T11:15:28.935Z,3.20
2019-02-02T11:17:58.148Z,3.10
2019-02-02T11:20:32.780Z,3.20
2019-02-02T11:23:01.561Z,3.20
2019-02-02T11:25:30.196Z,3.20
2019-02-02T11:27:58.770Z,3.10
2019-02-02T11:30:29.047Z,3.10
2019-02-02T11:32:57.699Z,3.10
2019-02-02T11:35:26.233Z,3.00
2019-02-02T11:37:54.765Z,3.00
2019-02-02T11:40:26.336Z,3.10
2019-02-02T11:42:55.051Z,3.10
2019-02-02T11:45:23.575Z,3.10
2019-02-02T11:47:52.246Z,3.10
2019-02-02T11:50:22.135Z,3.10
2019-02-02T11:52:50.680Z,3.20
2019-02-02T11:55:20.679Z,3.10
2019-02-02T11:57:49.964Z,3.10
2019-02-02T12:00:30.342Z,3.20
2019-02-02T12:02:58.877Z,3.20
2019-02-02T12:05:27.412Z,3.20
2019-02-02T12:07:56.036Z,3.10
2019-02-02T12:10:43.841Z,3.10
2019-02-02T12:13:12.340Z,3.10
2019-02-02T12:15:40.813Z,3.10
2019-02-02T12:18:11.834Z,3.10
2019-02-02T12:20:40.187Z,3.10
2019-02-02T12:23:08.715Z,3.10
2019-02-02T12:25:37.280Z,3.00
2019-02-02T12:28:05.863Z,3.10
2019-02-02T12:30:35.176Z,3.10
2019-02-02T12:33:04.219Z,3.20
2019-02-02T12:35:32.831Z,3.30
2019-02-02T12:38:01.415Z,3.30
2019-02-02T12:40:30.028Z,3.30
2019-02-02T12:42:58.498Z,3.40
2019-02-02T12:45:30.082Z,3.30
2019-02-02T12:47:58.547Z,3.30
2019-02-02T12:50:27.177Z,3.30
2019-02-02T12:52:55.704Z,3.40
2019-02-02T12:55:26.149Z,3.40
2019-02-02T12:57:54.564Z,3.40
2019-02-02T13:00:23.175Z,3.40
2019-02-02T13:02:51.705Z,3.30
2019-02-02T13:05:22.233Z,3.40
2019-02-02T13:07:50.827Z,3.40
2019-02-02T13:10:24.460Z,3.30
2019-02-02T13:12:52.129Z,3.30
2019-02-02T13:15:20.653Z,3.20
2019-02-02T13:17:49.209Z,3.20
2019-02-02T13:20:18.741Z,3.30
2019-02-02T13:22:47.218Z,3.30
2019-02-02T13:25:18.420Z,3.30
2019-02-02T13:27:46.937Z,3.40
2019-02-02T13:30:32.901Z,3.40
2019-02-02T13:33:01.431Z,3.40
2019-02-02T13:35:32.673Z,3.40
2019-02-02T13:38:01.203Z,3.40
2019-02-02T13:40:29.707Z,3.50
2019-02-02T13:42:58.180Z,3.40
2019-02-02T13:45:26.656Z,3.40
2019-02-02T13:47:55.170Z,3.40
2019-02-02T13:50:23.780Z,3.30
2019-02-02T13:52:52.728Z,3.40
2019-02-02T13:55:21.300Z,3.30
2019-02-02T13:57:49.783Z,3.30
2019-02-02T14:00:21.048Z,3.30
2019-02-02T14:03:01.499Z,3.30
2019-02-02T14:05:19.963Z,3.40
2019-02-02T14:07:48.500Z,3.40
2019-02-02T14:10:22.601Z,3.50
2019-02-02T14:12:51.055Z,3.50
2019-02-02T14:15:19.648Z,3.50
2019-02-02T14:17:48.124Z,3.50
2019-02-02T14:20:16.757Z,3.50
2019-02-02T14:22:45.952Z,3.50
2019-02-02T14:25:16.042Z,3.50
2019-02-02T14:27:44.568Z,3.50
2019-02-02T14:30:15.831Z,3.60
2019-02-02T14:32:44.520Z,3.60
2019-02-02T14:35:15.313Z,3.70
2019-02-02T14:37:43.855Z,3.60
2019-02-02T14:40:14.625Z,3.70
2019-02-02T14:42:43.100Z,3.70
2019-02-02T14:45:14.493Z,3.80
2019-02-02T14:47:43.094Z,3.80
2019-02-02T14:50:18.734Z,3.70
2019-02-02T14:52:47.000Z,3.80
2019-02-02T14:55:21.361Z,3.90
2019-02-02T14:57:49.967Z,3.90
2019-02-02T15:00:20.769Z,3.80
2019-02-02T15:02:49.369Z,3.80
2019-02-02T15:05:20.111Z,3.80
2019-02-02T15:07:48.893Z,3.80
2019-02-02T15:10:17.816Z,3.90
2019-02-02T15:12:46.452Z,3.90
2019-02-02T15:15:17.353Z,3.90
2019-02-02T15:17:45.976Z,3.90
2019-02-02T15:20:29.734Z,3.90
2019-02-02T15:22:58.248Z,3.90
2019-02-02T15:25:26.789Z,3.80
2019-02-02T15:27:55.261Z,3.80
2019-02-02T15:30:29.230Z,3.80
2019-02-02T15:32:57.751Z,3.80
2019-02-02T15:35:26.366Z,3.80
2019-02-02T15:37:54.930Z,3.80
2019-02-02T15:40:23.556Z,3.80
2019-02-02T15:42:52.076Z,3.80
2019-02-02T15:45:25.887Z,3.80
2019-02-02T15:47:54.527Z,3.80
2019-02-02T15:50:23.111Z,3.80
2019-02-02T15:52:51.640Z,3.80
2019-02-02T15:55:22.424Z,3.80
2019-02-02T15:57:50.952Z,3.80
2019-02-02T16:00:27.839Z,3.80
2019-02-02T16:02:56.382Z,3.80
2019-02-02T16:05:25.487Z,3.80
2019-02-02T16:07:54.482Z,3.80
2019-02-02T16:10:28.404Z,3.80
2019-02-02T16:12:57.510Z,3.80
2019-02-02T16:15:26.069Z,3.80
2019-02-02T16:17:54.746Z,3.80
2019-02-02T16:20:26.031Z,3.70
2019-02-02T16:22:54.509Z,3.70
2019-02-02T16:25:23.081Z,3.70
2019-02-02T16:27:51.608Z,3.70
2019-02-02T16:30:25.616Z,3.80
2019-02-02T16:32:54.240Z,3.70
2019-02-02T16:35:23.434Z,3.70
2019-02-02T16:37:52.167Z,3.80
2019-02-02T16:40:23.129Z,3.70
2019-02-02T16:42:53.771Z,3.70
2019-02-02T16:45:27.979Z,3.70
2019-02-02T16:47:56.788Z,3.70
2019-02-02T16:50:25.328Z,3.70
2019-02-02T16:52:54.116Z,3.70
2019-02-02T16:55:22.756Z,3.70
2019-02-02T16:57:51.401Z,3.70
2019-02-02T17:00:28.760Z,3.70
2019-02-02T17:02:57.225Z,3.70
2019-02-02T17:05:26.006Z,3.70
2019-02-02T17:07:54.605Z,3.70
2019-02-02T17:10:28.605Z,3.70
2019-02-02T17:12:57.213Z,3.60
2019-02-02T17:15:25.799Z,3.60
2019-02-02T17:17:54.352Z,3.60
2019-02-02T17:20:31.758Z,3.70
2019-02-02T17:23:00.328Z,3.60
2019-02-02T17:25:28.876Z,3.60
2019-02-02T17:27:57.421Z,3.50
2019-02-02T17:30:27.040Z,3.60
2019-02-02T17:32:58.579Z,3.60
2019-02-02T17:35:27.378Z,3.60
2019-02-02T17:37:55.925Z,3.60
2019-02-02T17:40:26.933Z,3.60
2019-02-02T17:42:56.027Z,3.60
2019-02-02T17:45:24.597Z,3.60
2019-02-02T17:47:53.068Z,3.60
2019-02-02T17:50:23.941Z,3.50
2019-02-02T17:52:52.398Z,3.60
2019-02-02T17:55:20.963Z,3.60
2019-02-02T17:57:49.570Z,3.50
2019-02-02T18:00:31.033Z,3.50
2019-02-02T18:02:59.681Z,3.60
2019-02-02T18:05:30.906Z,3.60
2019-02-02T18:07:59.367Z,3.50
2019-02-02T18:10:27.978Z,3.50
2019-02-02T18:12:58.063Z,3.50
2019-02-02T18:15:26.549Z,3.50
2019-02-02T18:17:55.046Z,3.50
2019-02-02T18:20:23.580Z,3.50
2019-02-02T18:22:52.140Z,3.50
2019-02-02T18:25:22.286Z,3.50
2019-02-02T18:27:50.872Z,3.40
2019-02-02T18:30:21.900Z,3.50
2019-02-02T18:32:52.055Z,3.50
2019-02-02T18:35:20.543Z,3.50
2019-02-02T18:37:49.087Z,3.50
2019-02-02T18:40:23.593Z,3.40
2019-02-02T18:42:52.461Z,3.40
2019-02-02T18:45:23.517Z,3.40
2019-02-02T18:47:52.157Z,3.40
2019-02-02T18:50:20.845Z,3.40
2019-02-02T18:52:51.272Z,3.40
2019-02-02T18:55:31.633Z,3.50
2019-02-02T18:58:00.166Z,3.40
2019-02-02T19:00:28.798Z,3.40
2019-02-02T19:02:57.505Z,3.40
2019-02-02T19:05:28.989Z,3.40
2019-02-02T19:07:56.148Z,3.40
2019-02-02T19:10:33.887Z,3.50
2019-02-02T19:13:02.460Z,3.50
2019-02-02T19:15:31.560Z,3.40
2019-02-02T19:18:03.166Z,3.40
2019-02-02T19:20:30.225Z,3.40
2019-02-02T19:22:58.760Z,3.40
2019-02-02T19:25:27.257Z,3.50
2019-02-02T19:27:55.882Z,3.50
2019-02-02T19:30:49.389Z,3.50
2019-02-02T19:33:17.921Z,3.50
2019-02-02T19:35:46.387Z,3.40
2019-02-02T19:38:26.840Z,3.40
2019-02-02T19:40:55.302Z,3.40
2019-02-02T19:43:23.944Z,3.40
2019-02-02T19:45:53.788Z,3.30
2019-02-02T19:48:22.424Z,3.40
2019-02-02T19:50:51.812Z,3.40
2019-02-02T19:53:20.405Z,3.40
2019-02-02T19:55:48.850Z,3.40
2019-02-02T19:58:17.313Z,3.40
2019-02-02T20:00:45.880Z,3.40
2019-02-02T20:03:14.354Z,3.40
2019-02-02T20:05:42.879Z,3.30
2019-02-02T20:08:11.540Z,3.30
2019-02-02T20:10:40.086Z,3.40
2019-02-02T20:13:08.539Z,3.30
2019-02-02T20:15:37.035Z,3.40
2019-02-02T20:18:10.010Z,3.40
2019-02-02T20:20:35.749Z,3.30
2019-02-02T20:23:04.393Z,3.30
2019-02-02T20:25:32.834Z,3.40
2019-02-02T20:28:01.301Z,3.40
2019-02-02T20:30:31.615Z,3.40
2019-02-02T20:33:00.151Z,3.40
2019-02-02T20:35:39.745Z,3.40
2019-02-02T20:37:59.098Z,3.30
2019-02-02T20:40:27.830Z,3.40
2019-02-02T20:42:56.516Z,3.40
2019-02-02T20:45:36.712Z,3.40
2019-02-02T20:48:06.019Z,3.40
2019-02-02T20:50:34.593Z,3.40
2019-02-02T20:53:03.165Z,3.40
2019-02-02T20:55:37.943Z,3.40
2019-02-02T20:58:06.875Z,3.40
2019-02-02T21:00:35.679Z,3.40
2019-02-02T21:03:04.489Z,3.40
2019-02-02T21:05:33.050Z,3.40
2019-02-02T21:08:02.020Z,3.30
2019-02-02T21:10:30.555Z,3.40
2019-02-02T21:12:59.177Z,3.40
2019-02-02T21:15:27.667Z,3.40
2019-02-02T21:17:56.469Z,3.40
2019-02-02T21:20:30.121Z,3.40
2019-02-02T21:22:58.825Z,3.40
2019-02-02T21:25:27.349Z,3.40
2019-02-02T21:27:55.808Z,3.40
2019-02-02T21:30:28.899Z,3.40
2019-02-02T21:32:57.500Z,3.40
2019-02-02T21:35:26.171Z,3.40
2019-02-02T21:37:54.730Z,3.40
2019-02-02T21:40:34.300Z,3.40
2019-02-02T21:43:02.881Z,3.50
2019-02-02T21:45:31.407Z,3.50
2019-02-02T21:47:59.868Z,3.40
2019-02-02T21:50:28.354Z,3.40
2019-02-02T21:52:56.907Z,3.30
2019-02-02T21:55:27.572Z,3.30
2019-02-02T21:57:56.132Z,3.30
2019-02-02T22:00:27.831Z,3.20
2019-02-02T22:02:56.344Z,3.30
2019-02-02T22:05:24.859Z,3.30
2019-02-02T22:07:53.480Z,3.30
2019-02-02T22:10:22.257Z,3.40
2019-02-02T22:12:52.926Z,3.30
2019-02-02T22:15:29.261Z,3.20
2019-02-02T22:17:57.831Z,3.30
2019-02-02T22:20:26.440Z,3.20
2019-02-02T22:22:54.960Z,3.30
2019-02-02T22:25:25.951Z,3.20
2019-02-02T22:28:13.851Z,3.30
2019-02-02T22:30:42.379Z,3.20
2019-02-02T22:33:10.839Z,3.20
2019-02-02T22:35:39.838Z,3.30
2019-02-02T22:38:08.568Z,3.30
2019-02-02T22:40:37.105Z,3.30
2019-02-02T22:43:05.750Z,3.40
2019-02-02T22:45:34.273Z,3.30
2019-02-02T22:48:02.820Z,3.30
2019-02-02T22:50:31.665Z,3.30
2019-02-02T22:53:00.133Z,3.40
2019-02-02T22:55:28.598Z,3.40
2019-02-02T22:57:57.142Z,3.40
2019-02-02T23:00:48.162Z,3.40
2019-02-02T23:03:23.000Z,3.30
2019-02-02T23:06:18.871Z,3.30
2019-02-02T23:09:05.439Z,3.30
2019-02-02T23:12:03.634Z,3.30
2019-02-02T23:14:56.429Z,3.30
2019-02-02T23:17:24.957Z,3.20
2019-02-02T23:19:53.438Z,3.20
2019-02-02T23:22:22.076Z,3.20
2019-02-02T23:24:50.540Z,3.20
2019-02-02T23:27:19.172Z,3.20
2019-02-02T23:29:47.716Z,3.20
2019-02-02T23:32:16.336Z,3.20
2019-02-02T23:34:44.900Z,3.10
2019-02-02T23:37:13.360Z,3.10
2019-02-02T23:39:41.828Z,3.10
2019-02-02T23:42:10.362Z,3.00
2019-02-02T23:44:38.876Z,3.10
2019-02-02T23:47:07.345Z,3.10
2019-02-02T23:49:39.264Z,3.00
2019-02-02T23:52:07.800Z,3.00
2019-02-02T23:54:36.298Z,2.90
2019-02-02T23:57:04.929Z,2.90
2019-02-02T23:59:35.229Z,2.80
